Terminal Aerodrome Forecast
Issued by NWS Greer, SC

Home | Current Version | Previous Version | Text Only | Print | Product List | Glossary On
Versions: 1 2 3 4 5 6 7 8 9 10 11 12 13 14 15 16 17 18 19 20 21 22
000
FTUS42 KGSP 240616 AAA
TAFAVL
TAF AMD
KAVL 240616Z 2406/2506 12010KT P6SM SHRA SCT009 OVC020
      TEMPO 2406/2409 4SM SHRA OVC008
     FM240900 12008KT 4SM SHRA BR OVC005
     FM241400 15007KT 3SM -SHRA BR OVC008
     FM241500 VRB05KT 2SM -SHRA BR OVC010
     FM242000 35007KT 3SM -SHRA OVC012
     FM242300 34007KT 5SM BR VCSH OVC007=

USA.gov is the U.S. government's official web portal to all federal, state and local government web resources and services.